Time;durP1;ratioP1;P1;durP2;ratioP2;P2;SDS_P1;SDS_P2;PMS_P1;PMS_P2;Temp;Humidity;BMP_temperature;BMP_pressure;BME280_temperature;BME280_humidity;BME280_pressure;Samples;Min_cycle;Max_cycle;Signal;HPM_P1;HPM_P2
2021/12/03 00:00:30;;;;;;;;;;;;;;;-0.54;88.64258;101074.9;;;;-81
2021/12/03 00:05:28;;;;;;;;;;;;;;;-0.54;88.58887;101076.8;;;;-80
2021/12/03 00:08:02;;;;;;;1.7;0.9;;;;;;;;;;;;;-79
2021/12/03 00:10:29;;;;;;;;;;;;;;;-0.55;88.69629;101080.7;;;;-81
2021/12/03 00:15:32;;;;;;;;;;;;;;;-0.54;88.76074;101073.7;;;;-81
2021/12/03 00:20:29;;;;;;;;;;;;;;;-0.53;88.74121;101075.8;;;;-81
2021/12/03 00:25:28;;;;;;;;;;;;;;;-0.52;88.72266;101082.3;;;;-80
2021/12/03 00:30:28;;;;;;;;;;;;;;;-0.52;88.70117;101072.1;;;;-80
2021/12/03 00:35:28;;;;;;;;;;;;;;;-0.52;88.71191;101070.8;;;;-81
2021/12/03 01:00:35;;;;;;;;;;;;;;;-0.49;88.83594;101071.7;;;;-80
2021/12/03 01:05:29;;;;;;;;;;;;;;;-0.47;88.89355;101066;;;;-81
2021/12/03 01:07:58;;;;;;;1.8;0.8;;;;;;;;;;;;;-81
2021/12/03 01:10:29;;;;;;;;;;;;;;;-0.46;88.87402;101058.7;;;;-79
2021/12/03 01:15:30;;;;;;;;;;;;;;;-0.44;88.88867;101054.4;;;;-79
2021/12/03 01:20:30;;;;;;;;;;;;;;;-0.44;89.02832;101049.7;;;;-80
2021/12/03 01:25:28;;;;;;;;;;;;;;;-0.43;88.97656;101050.1;;;;-80
2021/12/03 01:30:28;;;;;;;;;;;;;;;-0.43;88.96582;101050.1;;;;-79
2021/12/03 01:35:32;;;;;;;;;;;;;;;-0.41;88.98242;101058.4;;;;-80
2021/12/03 01:37:57;;;;;;;2.8;1.3;;;;;;;;;;;;;-80
2021/12/03 01:40:30;;;;;;;;;;;;;;;-0.4;89.04883;101051.9;;;;-80
2021/12/03 01:45:29;;;;;;;;;;;;;;;-0.39;89.1582;101060.4;;;;-80
2021/12/03 01:50:31;;;;;;;;;;;;;;;-0.35;89.23047;101058;;;;-80
2021/12/03 01:55:28;;;;;;;;;;;;;;;-0.31;89.26172;101052.6;;;;-80
2021/12/03 02:00:30;;;;;;;;;;;;;;;-0.25;89.27051;101046.7;;;;-81
2021/12/03 02:05:28;;;;;;;;;;;;;;;-0.24;89.31738;101039.1;;;;-79
2021/12/03 02:07:55;;;;;;;2.7;1.3;;;;;;;;;;;;;-80
2021/12/03 02:10:29;;;;;;;;;;;;;;;-0.21;89.51758;101042.8;;;;-79
2021/12/03 02:15:28;;;;;;;;;;;;;;;-0.16;89.46387;101051.8;;;;-82
2021/12/03 02:20:29;;;;;;;;;;;;;;;-0.15;89.54102;101037;;;;-81
2021/12/03 02:25:30;;;;;;;;;;;;;;;-0.11;89.60449;101032.7;;;;-80
2021/12/03 02:30:28;;;;;;;;;;;;;;;-0.08;89.64258;101028.5;;;;-80
2021/12/03 02:35:29;;;;;;;;;;;;;;;-0.05;89.68945;101027.9;;;;-80
2021/12/03 02:37:54;;;;;;;6.6;1.9;;;;;;;;;;;;;-80
2021/12/03 02:40:29;;;;;;;;;;;;;;;-0.02;89.80469;101030.3;;;;-81
2021/12/03 02:45:28;;;;;;;;;;;;;;;0.01;89.71387;101032.7;;;;-80
2021/12/03 02:50:28;;;;;;;;;;;;;;;0.01;89.8125;101036;;;;-80
2021/12/03 02:55:28;;;;;;;;;;;;;;;0.03;89.79688;101028.7;;;;-79
2021/12/03 03:00:29;;;;;;;;;;;;;;;0.04;89.74316;101034.7;;;;-78
2021/12/03 03:05:29;;;;;;;;;;;;;;;0.06;89.82227;101028.7;;;;-79
2021/12/03 03:07:53;;;;;;;5.8;2.2;;;;;;;;;;;;;-79
2021/12/03 03:10:32;;;;;;;;;;;;;;;0.08;89.83691;101024.1;;;;-80
2021/12/03 03:15:28;;;;;;;;;;;;;;;0.1;89.875;101012.3;;;;-79
2021/12/03 03:20:28;;;;;;;;;;;;;;;0.12;89.94336;100990.2;;;;-80
2021/12/03 03:25:28;;;;;;;;;;;;;;;0.15;89.96875;100982.5;;;;-80
2021/12/03 03:30:28;;;;;;;;;;;;;;;0.19;90.10938;100970.6;;;;-80
2021/12/03 03:35:28;;;;;;;;;;;;;;;0.22;90.19043;100963.8;;;;-80
2021/12/03 03:37:51;;;;;;;3.8;2;;;;;;;;;;;;;-80
2021/12/03 03:40:28;;;;;;;;;;;;;;;0.26;90.29492;100965.8;;;;-79
2021/12/03 03:45:32;;;;;;;;;;;;;;;0.29;90.29199;100968;;;;-80
2021/12/03 03:50:29;;;;;;;;;;;;;;;0.31;90.33887;100962.5;;;;-79
2021/12/03 03:55:29;;;;;;;;;;;;;;;0.34;90.43066;100950.5;;;;-79
2021/12/03 04:00:31;;;;;;;;;;;;;;;0.4;90.60352;100955.7;;;;-79
2021/12/03 04:05:28;;;;;;;;;;;;;;;0.45;90.91699;100963.8;;;;-80
2021/12/03 04:07:49;;;;;;;4.8;1.9;;;;;;;;;;;;;-80
2021/12/03 04:10:28;;;;;;;;;;;;;;;0.48;90.95508;100957.9;;;;-80
2021/12/03 04:15:28;;;;;;;;;;;;;;;0.51;90.94141;100951.7;;;;-80
2021/12/03 04:20:28;;;;;;;;;;;;;;;0.55;90.98145;100954;;;;-79
2021/12/03 04:25:28;;;;;;;;;;;;;;;0.63;91.03125;100945.9;;;;-79
2021/12/03 04:30:30;;;;;;;;;;;;;;;0.7;91.19531;100947.6;;;;-80
2021/12/03 04:35:29;;;;;;;;;;;;;;;0.74;91.35645;100928.1;;;;-80
2021/12/03 04:37:48;;;;;;;6.2;1.9;;;;;;;;;;;;;-80
2021/12/03 04:40:32;;;;;;;;;;;;;;;0.79;91.5166;100928.7;;;;-81
2021/12/03 04:45:29;;;;;;;;;;;;;;;0.83;91.6123;100924.7;;;;-80
2021/12/03 04:50:29;;;;;;;;;;;;;;;0.88;91.58105;100918.3;;;;-80
2021/12/03 04:55:28;;;;;;;;;;;;;;;0.93;91.67676;100921.3;;;;-81
2021/12/03 05:00:30;;;;;;;;;;;;;;;0.97;91.67383;100916.7;;;;-80
2021/12/03 05:05:32;;;;;;;;;;;;;;;1.01;91.65137;100910.8;;;;-80
2021/12/03 05:07:57;;;;;;;3.7;1.8;;;;;;;;;;;;;-81
2021/12/03 05:10:29;;;;;;;;;;;;;;;1.03;91.55859;100906.3;;;;-82
2021/12/03 05:15:28;;;;;;;;;;;;;;;1.06;91.54199;100901.1;;;;-80
2021/12/03 05:20:28;;;;;;;;;;;;;;;1.11;91.52148;100891.6;;;;-80
2021/12/03 05:25:29;;;;;;;;;;;;;;;1.14;91.46289;100894.6;;;;-80
2021/12/03 05:30:29;;;;;;;;;;;;;;;1.16;91.44531;100897.1;;;;-80
2021/12/03 05:35:28;;;;;;;;;;;;;;;1.21;91.48926;100885.5;;;;-80
2021/12/03 05:37:46;;;;;;;5.9;1.1;;;;;;;;;;;;;-81
2021/12/03 05:40:28;;;;;;;;;;;;;;;1.24;91.63574;100887.2;;;;-80
2021/12/03 05:45:32;;;;;;;;;;;;;;;1.27;91.69531;100887.2;;;;-81
2021/12/03 05:50:30;;;;;;;;;;;;;;;1.3;91.72461;100885;;;;-81
2021/12/03 05:55:28;;;;;;;;;;;;;;;1.33;91.68555;100880.7;;;;-81
2021/12/03 06:00:31;;;;;;;;;;;;;;;1.34;91.65625;100873.7;;;;-81
2021/12/03 06:05:29;;;;;;;;;;;;;;;1.37;91.66113;100875.8;;;;-81
2021/12/03 06:07:44;;;;;;;6.6;1.3;;;;;;;;;;;;;-82
2021/12/03 06:10:29;;;;;;;;;;;;;;;1.38;91.62305;100871.1;;;;-80
2021/12/03 06:15:29;;;;;;;;;;;;;;;1.42;91.63086;100877;;;;-80
2021/12/03 06:20:28;;;;;;;;;;;;;;;1.44;91.61328;100866;;;;-80
2021/12/03 06:25:28;;;;;;;;;;;;;;;1.47;91.62988;100873.1;;;;-79
2021/12/03 06:30:29;;;;;;;;;;;;;;;1.5;91.5625;100880.1;;;;-80
2021/12/03 06:35:28;;;;;;;;;;;;;;;1.53;91.48145;100876.1;;;;-80
2021/12/03 06:37:43;;;;;;;2.7;1.1;;;;;;;;;;;;;-80
2021/12/03 06:40:29;;;;;;;;;;;;;;;1.56;91.39063;100869.1;;;;-81
2021/12/03 06:45:28;;;;;;;;;;;;;;;1.61;91.37793;100871;;;;-79
2021/12/03 06:50:29;;;;;;;;;;;;;;;1.65;91.3125;100855.4;;;;-80
2021/12/03 06:55:28;;;;;;;;;;;;;;;1.72;91.2832;100858.3;;;;-80
2021/12/03 07:00:28;;;;;;;;;;;;;;;1.77;91.16309;100854.4;;;;-80
2021/12/03 07:05:28;;;;;;;;;;;;;;;1.83;90.9082;100850.5;;;;-79
2021/12/03 07:07:41;;;;;;;5.5;1.2;;;;;;;;;;;;;-80
2021/12/03 07:10:28;;;;;;;;;;;;;;;1.87;90.81641;100850;;;;-80
2021/12/03 07:15:28;;;;;;;;;;;;;;;1.9;90.70703;100852.9;;;;-80
2021/12/03 07:20:33;;;;;;;;;;;;;;;1.93;90.76563;100839.1;;;;-80
2021/12/03 07:25:28;;;;;;;;;;;;;;;1.96;90.83789;100832.8;;;;-79
2021/12/03 07:30:31;;;;;;;;;;;;;;;2.01;90.96875;100827.3;;;;-80
2021/12/03 07:35:28;;;;;;;;;;;;;;;2.03;90.89453;100815.1;;;;-79
2021/12/03 07:37:42;;;;;;;10.4;1.7;;;;;;;;;;;;;-80
2021/12/03 07:40:28;;;;;;;;;;;;;;;2.06;90.88086;100810.6;;;;-80
2021/12/03 07:45:28;;;;;;;;;;;;;;;2.08;90.88477;100806.9;;;;-80
2021/12/03 07:50:28;;;;;;;;;;;;;;;2.11;90.92285;100809.6;;;;-79
2021/12/03 07:55:28;;;;;;;;;;;;;;;2.13;90.83105;100798.4;;;;-79
2021/12/03 08:00:28;;;;;;;;;;;;;;;2.16;90.91211;100792.6;;;;-80
2021/12/03 08:05:28;;;;;;;;;;;;;;;2.2;90.96387;100795;;;;-80
2021/12/03 08:07:40;;;;;;;4.9;1.5;;;;;;;;;;;;;-79
2021/12/03 08:10:28;;;;;;;;;;;;;;;2.23;90.90625;100789.5;;;;-80
2021/12/03 08:15:28;;;;;;;;;;;;;;;2.28;90.8291;100781.3;;;;-79
2021/12/03 08:20:28;;;;;;;;;;;;;;;2.32;90.84961;100777.3;;;;-79
2021/12/03 08:25:28;;;;;;;;;;;;;;;2.35;90.73633;100758.3;;;;-79
2021/12/03 08:30:30;;;;;;;;;;;;;;;2.39;90.6709;100759.6;;;;-80
2021/12/03 08:35:28;;;;;;;;;;;;;;;2.43;90.60254;100756.5;;;;-79
2021/12/03 08:37:43;;;;;;;7.9;2.2;;;;;;;;;;;;;-79
2021/12/03 08:40:28;;;;;;;;;;;;;;;2.47;90.50195;100752.1;;;;-79
2021/12/03 08:45:29;;;;;;;;;;;;;;;2.51;90.3584;100754.3;;;;-79
2021/12/03 08:50:34;;;;;;;;;;;;;;;2.51;90.34863;100764.2;;;;-80
2021/12/03 08:55:28;;;;;;;;;;;;;;;2.53;90.3418;100757.9;;;;-78
2021/12/03 09:00:36;;;;;;;;;;;;;;;2.55;90.2793;100750.2;;;;-79
2021/12/03 09:05:31;;;;;;;;;;;;;;;2.58;90.18945;100752.3;;;;-79
2021/12/03 09:07:37;;;;;;;10.3;2.2;;;;;;;;;;;;;-79
2021/12/03 09:10:32;;;;;;;;;;;;;;;2.59;90.14746;100745.8;;;;-79
2021/12/03 09:15:34;;;;;;;;;;;;;;;2.62;90.04688;100741.8;;;;-79
2021/12/03 09:20:41;;;;;;;;;;;;;;;2.65;89.98633;100735.6;;;;-79
2021/12/03 09:25:32;;;;;;;;;;;;;;;2.65;89.98828;100728.5;;;;-79
2021/12/03 09:30:35;;;;;;;;;;;;;;;2.67;89.94629;100722.4;;;;-79
2021/12/03 09:35:30;;;;;;;;;;;;;;;2.68;89.9502;100719.4;;;;-78
2021/12/03 09:37:36;;;;;;;6.8;2.2;;;;;;;;;;;;;-78
2021/12/03 09:40:31;;;;;;;;;;;;;;;2.7;89.94531;100712.8;;;;-80
2021/12/03 09:45:28;;;;;;;;;;;;;;;2.73;89.91797;100694.6;;;;-78
2021/12/03 09:50:28;;;;;;;;;;;;;;;2.77;90.00195;100697.1;;;;-79
2021/12/03 09:55:29;;;;;;;;;;;;;;;2.81;89.99805;100683.5;;;;-78
2021/12/03 10:00:34;;;;;;;;;;;;;;;2.85;89.98633;100670.6;;;;-78
2021/12/03 10:15:30;;;;;;;;;;;;;;;2.97;89.63184;100661;;;;-79
2021/12/03 10:20:34;;;;;;;;;;;;;;;3;89.50977;100659.6;;;;-79
2021/12/03 10:30:52;;;;;;;;;;;;;;;3.11;89.35645;100609.1;;;;-79
2021/12/03 10:35:56;;;;;;;;;;;;;;;3.14;89.26465;100607.5;;;;-79
2021/12/03 10:45:37;;;;;;;;;;;;;;;3.18;89.13281;100599.8;;;;-80
2021/12/03 11:37:54;;;;;;;14.9;4.8;;;;;;;;;;;;;-80
2021/12/03 14:07:50;;;;;;;7.3;4.1;;;;;;;;;;;;;-81
2021/12/03 14:55:33;;;;;;;;;;;;;;;3.76;91.26074;100311.4;;;;-81
2021/12/03 15:00:32;;;;;;;;;;;;;;;3.77;91.33789;100306.1;;;;-80
2021/12/03 15:05:51;;;;;;;;;;;;;;;3.76;91.3584;100291.9;;;;-79
2021/12/03 15:07:31;;;;;;;10.7;5.5;;;;;;;;;;;;;-79
2021/12/03 15:10:39;;;;;;;;;;;;;;;3.75;91.55371;100297.5;;;;-80
2021/12/03 15:25:36;;;;;;;;;;;;;;;3.75;91.81152;100290.6;;;;-80
2021/12/03 15:35:33;;;;;;;;;;;;;;;3.74;91.90723;100285.7;;;;-80
2021/12/03 15:37:44;;;;;;;9.6;5.2;;;;;;;;;;;;;-80
2021/12/03 15:40:41;;;;;;;;;;;;;;;3.74;92.0293;100276.8;;;;-81
2021/12/03 16:05:52;;;;;;;;;;;;;;;3.76;92.32617;100262.6;;;;-81
2021/12/03 16:07:43;;;;;;;11.2;5.6;;;;;;;;;;;;;-82
2021/12/03 16:10:30;;;;;;;;;;;;;;;3.77;92.47949;100269.7;;;;-82
2021/12/03 16:25:48;;;;;;;;;;;;;;;3.79;92.45117;100259.7;;;;-83
2021/12/03 16:45:49;;;;;;;;;;;;;;;3.82;92.81543;100270.2;;;;-80
2021/12/03 16:50:59;;;;;;;;;;;;;;;3.82;92.89258;100268.8;;;;-81
2021/12/03 16:55:28;;;;;;;;;;;;;;;3.83;92.80566;100265.3;;;;-80
2021/12/03 17:00:34;;;;;;;;;;;;;;;3.83;92.83887;100274.8;;;;-80
2021/12/03 17:10:54;;;;;;;;;;;;;;;3.86;92.93164;100259.7;;;;-82
2021/12/03 17:51:01;;;;;;;;;;;;;;;3.95;93.08301;100225.4;;;;-80
2021/12/03 17:55:57;;;;;;;;;;;;;;;3.96;93.0293;100222;;;;-79
2021/12/03 18:00:34;;;;;;;;;;;;;;;3.98;93.09961;100228.3;;;;-80
2021/12/03 18:05:41;;;;;;;;;;;;;;;3.98;93.0459;100231.6;;;;-80
2021/12/03 18:07:26;;;;;;;15.6;8.5;;;;;;;;;;;;;-80
2021/12/03 18:55:35;;;;;;;;;;;;;;;4.02;92.79297;100215.4;;;;-84
2021/12/03 19:00:30;;;;;;;;;;;;;;;4.01;92.8457;100214.1;;;;-81
2021/12/03 19:05:35;;;;;;;;;;;;;;;4.02;92.83594;100216;;;;-81
2021/12/03 19:07:19;;;;;;;19.9;10.2;;;;;;;;;;;;;-81
2021/12/03 19:10:31;;;;;;;;;;;;;;;4.02;92.72754;100220.1;;;;-82
2021/12/03 19:15:28;;;;;;;;;;;;;;;4.01;92.8125;100217.7;;;;-78
2021/12/03 19:20:35;;;;;;;;;;;;;;;4.02;92.84766;100208.5;;;;-80
2021/12/03 19:34:50;;;;;;;;;;;;;;;4.02;92.95605;100196.3;;;;-80
2021/12/03 19:37:18;;;;;;;23.3;10.6;;;;;;;;;;;;;-81
2021/12/03 19:39:51;;;;;;;;;;;;;;;4.01;92.98633;100196;;;;-80
2021/12/03 19:44:53;;;;;;;;;;;;;;;4.02;93.03418;100194.8;;;;-81
2021/12/03 19:50:04;;;;;;;;;;;;;;;4.02;92.97754;100186.3;;;;-80
2021/12/03 19:54:50;;;;;;;;;;;;;;;4.03;93.02344;100170.8;;;;-81
2021/12/03 19:59:53;;;;;;;;;;;;;;;4.03;93.06641;100165.7;;;;-81
2021/12/03 20:04:50;;;;;;;;;;;;;;;4.04;92.9707;100175.4;;;;-81
2021/12/03 20:07:13;;;;;;;21.1;9.4;;;;;;;;;;;;;-81
2021/12/03 20:09:58;;;;;;;;;;;;;;;4.04;92.94922;100180.4;;;;-80
2021/12/03 20:14:51;;;;;;;;;;;;;;;4.04;92.88379;100182.2;;;;-81
2021/12/03 20:19:53;;;;;;;;;;;;;;;4.04;92.92871;100188.4;;;;-80
2021/12/03 20:29:53;;;;;;;;;;;;;;;4.05;92.91797;100196.1;;;;-80
2021/12/03 20:37:13;;;;;;;22.3;9.4;;;;;;;;;;;;;-81
2021/12/03 20:39:55;;;;;;;;;;;;;;;4.06;92.85742;100190.4;;;;-81
2021/12/03 20:50:05;;;;;;;;;;;;;;;4.06;92.81152;100170.4;;;;-80
2021/12/03 20:57:14;;;;;;;;;;;;;;;4.06;92.79199;100181;;;;-80
2021/12/03 21:09:52;;;;;;;;;;;;;;;4.07;92.81543;100177.2;;;;-80
2021/12/03 21:14:58;;;;;;;;;;;;;;;4.08;92.75195;100180.7;;;;-79
2021/12/03 21:19:59;;;;;;;;;;;;;;;4.08;92.73047;100193;;;;-79
2021/12/03 21:24:55;;;;;;;;;;;;;;;4.07;92.74121;100186.5;;;;-79
2021/12/03 21:30:01;;;;;;;;;;;;;;;4.07;92.70898;100179.2;;;;-81
2021/12/03 21:40:06;;;;;;;;;;;;;;;4.06;92.77051;100162.6;;;;-81
2021/12/03 21:44:51;;;;;;;;;;;;;;;4.07;92.77246;100165.5;;;;-81
2021/12/03 21:49:50;;;;;;;;;;;;;;;4.07;92.84863;100161.6;;;;-81
2021/12/03 21:54:53;;;;;;;;;;;;;;;4.07;92.7832;100153.5;;;;-81
2021/12/03 21:59:50;;;;;;;;;;;;;;;4.07;92.7832;100143.3;;;;-80
2021/12/03 22:04:51;;;;;;;;;;;;;;;4.07;92.80469;100139.4;;;;-80
2021/12/03 22:07:11;;;;;;;24;9.4;;;;;;;;;;;;;-79
2021/12/03 22:09:50;;;;;;;;;;;;;;;4.07;92.7832;100132;;;;-81
2021/12/03 22:14:59;;;;;;;;;;;;;;;4.07;92.73926;100130.1;;;;-80
2021/12/03 22:19:51;;;;;;;;;;;;;;;4.06;92.7373;100117;;;;-80
2021/12/03 22:24:51;;;;;;;;;;;;;;;4.06;92.79199;100100.5;;;;-81
2021/12/03 22:29:53;;;;;;;;;;;;;;;4.06;92.84375;100102.8;;;;-80
2021/12/03 22:34:50;;;;;;;;;;;;;;;4.06;92.74609;100092.3;;;;-81
2021/12/03 22:37:07;;;;;;;23.6;9.8;;;;;;;;;;;;;-80
2021/12/03 22:39:51;;;;;;;;;;;;;;;4.07;92.6416;100099.5;;;;-81
2021/12/03 22:44:52;;;;;;;;;;;;;;;4.06;92.66113;100088.6;;;;-81
2021/12/03 22:54:50;;;;;;;;;;;;;;;4.06;92.68164;100079;;;;-79
2021/12/03 22:59:51;;;;;;;;;;;;;;;4.05;92.75781;100069.5;;;;-80
2021/12/03 23:04:50;;;;;;;;;;;;;;;4.05;92.75781;100066.2;;;;-80
2021/12/03 23:07:06;;;;;;;24.6;10.1;;;;;;;;;;;;;-80
2021/12/03 23:09:51;;;;;;;;;;;;;;;4.05;92.74609;100062.3;;;;-80
2021/12/03 23:14:50;;;;;;;;;;;;;;;4.05;92.81152;100062.3;;;;-81
2021/12/03 23:19:50;;;;;;;;;;;;;;;4.05;92.65918;100060.7;;;;-81
2021/12/03 23:24:50;;;;;;;;;;;;;;;4.06;92.60547;100057.5;;;;-81
2021/12/03 23:29:55;;;;;;;;;;;;;;;4.06;92.5293;100057.3;;;;-81
2021/12/03 23:34:50;;;;;;;;;;;;;;;4.06;92.54004;100055.7;;;;-81
2021/12/03 23:37:06;;;;;;;23;9.8;;;;;;;;;;;;;-81
2021/12/03 23:39:50;;;;;;;;;;;;;;;4.06;92.3877;100057.1;;;;-81
2021/12/03 23:44:50;;;;;;;;;;;;;;;4.06;92.46387;100037.3;;;;-82
2021/12/03 23:49:50;;;;;;;;;;;;;;;4.05;92.49707;100037;;;;-81
2021/12/03 23:54:51;;;;;;;;;;;;;;;4.05;92.47559;100035.2;;;;-81
2021/12/03 23:59:50;;;;;;;;;;;;;;;4.05;92.45313;100027.9;;;;-81
